Time;durP1;ratioP1;P1;durP2;ratioP2;P2;SDS_P1;SDS_P2;PMS_P1;PMS_P2;Temp;Humidity;BMP_temperature;BMP_pressure;BME280_temperature;BME280_humidity;BME280_pressure;Samples;Min_cycle;Max_cycle;Signal;HPM_P1;HPM_P2
2024/03/18 00:01:51;;;;;;;7.67;5.57;;;13.80;38.90;;;;;;10350552;28;20265;-75
2024/03/18 00:06:53;;;;;;;5.77;5.17;;;13.80;38.70;;;;;;10352921;28;20250;-75
2024/03/18 00:11:57;;;;;;;6.73;5.10;;;13.80;38.80;;;;;;10356371;28;20250;-75
2024/03/18 00:16:59;;;;;;;5.53;4.97;;;13.80;38.90;;;;;;10346905;28;20695;-75
2024/03/18 00:22:01;;;;;;;6.77;6.07;;;13.80;38.80;;;;;;10349866;28;20285;-75
2024/03/18 00:27:06;;;;;;;6.57;5.23;;;13.80;38.90;;;;;;10351394;28;20254;-75
2024/03/18 00:32:08;;;;;;;5.67;5.07;;;13.80;38.90;;;;;;10345685;28;20261;-75
2024/03/18 00:37:11;;;;;;;6.63;5.23;;;13.70;38.80;;;;;;10370416;28;20222;-75
2024/03/18 00:42:14;;;;;;;5.47;4.53;;;13.60;38.70;;;;;;10346333;28;20269;-75
2024/03/18 00:47:16;;;;;;;6.50;5.30;;;13.50;38.90;;;;;;10347828;28;20724;-75
2024/03/18 00:52:19;;;;;;;5.77;5.27;;;13.50;39.00;;;;;;10349476;28;20254;-75
2024/03/18 00:57:23;;;;;;;5.77;4.80;;;13.50;39.10;;;;;;10346491;28;20305;-75
2024/03/18 01:02:25;;;;;;;5.40;4.87;;;13.40;39.20;;;;;;10347343;28;20312;-75
2024/03/18 01:07:27;;;;;;;4.67;4.20;;;13.40;39.10;;;;;;10353103;28;20258;-75
2024/03/18 01:12:31;;;;;;;4.73;4.33;;;13.40;39.10;;;;;;10345490;28;20819;-75
2024/03/18 01:17:33;;;;;;;6.00;5.10;;;13.40;39.40;;;;;;10350936;28;20289;-75
2024/03/18 01:22:36;;;;;;;5.73;5.23;;;13.40;39.30;;;;;;10349226;28;20241;-75
2024/03/18 01:27:39;;;;;;;6.90;5.60;;;13.30;39.90;;;;;;10344311;28;20246;-75
2024/03/18 01:32:42;;;;;;;6.23;5.50;;;13.20;39.50;;;;;;10346065;28;20242;-75
2024/03/18 01:37:45;;;;;;;6.43;5.40;;;13.20;39.30;;;;;;10348792;28;20664;-76
2024/03/18 01:42:49;;;;;;;6.00;5.50;;;13.20;39.50;;;;;;10349623;28;20727;-75
2024/03/18 01:47:52;;;;;;;5.60;5.10;;;13.20;39.70;;;;;;10360984;28;20258;-76
2024/03/18 01:52:55;;;;;;;5.80;5.03;;;13.10;39.40;;;;;;10347624;28;20280;-75
2024/03/18 01:57:58;;;;;;;6.07;5.47;;;13.00;39.50;;;;;;10386178;28;20311;-75
2024/03/18 02:03:01;;;;;;;6.47;5.87;;;13.00;39.80;;;;;;10366490;28;20405;-75
2024/03/18 02:08:04;;;;;;;6.43;5.90;;;13.00;39.70;;;;;;10353482;28;20720;-75
2024/03/18 02:13:08;;;;;;;5.97;5.47;;;13.00;39.70;;;;;;10361527;28;20318;-75
2024/03/18 02:18:10;;;;;;;5.80;5.30;;;12.90;39.80;;;;;;10361171;28;20226;-75
2024/03/18 02:23:14;;;;;;;6.20;5.60;;;12.70;39.70;;;;;;10356992;28;20253;-75
2024/03/18 02:28:16;;;;;;;6.47;5.77;;;12.60;40.10;;;;;;10356249;28;20254;-76
2024/03/18 02:33:18;;;;;;;6.50;5.90;;;12.60;40.00;;;;;;10374364;28;20265;-75
2024/03/18 02:38:22;;;;;;;6.87;5.63;;;12.50;40.10;;;;;;10373215;28;20253;-75
2024/03/18 02:43:24;;;;;;;5.57;5.07;;;12.40;40.40;;;;;;10360631;28;20246;-75
2024/03/18 02:48:27;;;;;;;4.53;4.13;;;12.40;40.30;;;;;;10361727;28;20246;-75
2024/03/18 02:53:30;;;;;;;5.13;4.60;;;12.40;40.40;;;;;;10349777;28;20790;-76
2024/03/18 02:58:32;;;;;;;6.37;5.27;;;12.40;40.70;;;;;;10372673;28;20743;-75
2024/03/18 03:03:36;;;;;;;5.80;5.30;;;12.40;40.40;;;;;;10400163;28;20245;-75
2024/03/18 03:08:40;;;;;;;5.47;4.97;;;12.50;40.40;;;;;;10367922;28;20260;-75
2024/03/18 03:13:42;;;;;;;4.97;4.53;;;12.60;40.30;;;;;;10377251;28;20802;-75
2024/03/18 03:18:45;;;;;;;4.60;4.20;;;12.60;40.20;;;;;;10358073;28;20250;-75
2024/03/18 03:23:48;;;;;;;5.93;5.40;;;12.60;40.10;;;;;;10372812;28;20392;-75
2024/03/18 03:28:50;;;;;;;5.70;5.20;;;12.60;40.30;;;;;;10380126;28;20258;-75
2024/03/18 03:33:53;;;;;;;5.63;5.10;;;12.60;40.00;;;;;;10361984;28;20727;-75
2024/03/18 03:38:59;;;;;;;4.80;4.47;;;12.60;39.90;;;;;;10359435;28;20736;-76
2024/03/18 03:44:01;;;;;;;4.70;4.20;;;12.60;40.30;;;;;;10414668;28;20739;-75
2024/03/18 03:49:04;;;;;;;5.20;4.80;;;12.60;39.80;;;;;;10392684;28;20252;-75
2024/03/18 03:54:07;;;;;;;5.00;4.50;;;12.50;39.70;;;;;;10372845;28;20789;-75
2024/03/18 03:59:09;;;;;;;10.87;4.43;;;12.50;39.80;;;;;;10374624;28;20703;-75
2024/03/18 04:04:12;;;;;;;4.97;4.57;;;12.50;39.70;;;;;;10365912;28;20308;-75
2024/03/18 04:09:15;;;;;;;7.30;6.60;;;12.40;39.70;;;;;;10358522;28;20397;-75
2024/03/18 04:14:17;;;;;;;6.47;5.87;;;12.40;39.80;;;;;;10372826;28;20253;-75
2024/03/18 04:19:21;;;;;;;8.73;6.50;;;12.40;39.70;;;;;;10372868;28;20306;-75
2024/03/18 04:24:25;;;;;;;7.37;6.30;;;12.40;39.80;;;;;;10369259;28;20253;-75
2024/03/18 04:29:28;;;;;;;10.50;7.13;;;12.30;40.10;;;;;;10365783;28;20304;-75
2024/03/18 04:34:32;;;;;;;8.57;6.00;;;12.30;39.80;;;;;;10378430;28;20263;-75
2024/03/18 04:39:35;;;;;;;8.20;6.60;;;12.30;40.00;;;;;;10375106;28;20240;-75
2024/03/18 04:44:37;;;;;;;6.30;5.70;;;12.20;40.10;;;;;;10364535;28;20246;-75
2024/03/18 04:49:39;;;;;;;6.17;5.30;;;12.20;40.20;;;;;;10364714;28;20307;-75
2024/03/18 04:54:43;;;;;;;6.20;5.60;;;12.10;40.00;;;;;;10379859;28;20253;-74
2024/03/18 04:59:45;;;;;;;6.27;5.67;;;12.10;40.30;;;;;;10364629;28;20246;-75
2024/03/18 05:04:48;;;;;;;5.67;5.17;;;12.10;40.10;;;;;;10351041;28;20869;-76
2024/03/18 05:09:55;;;;;;;6.10;5.50;;;12.10;40.10;;;;;;10360367;28;20269;-75
2024/03/18 05:14:58;;;;;;;6.60;5.93;;;12.10;40.40;;;;;;10363490;28;20264;-76
2024/03/18 05:20:00;;;;;;;6.50;5.90;;;12.10;40.00;;;;;;10389927;28;20250;-76
2024/03/18 05:25:06;;;;;;;7.50;6.80;;;12.00;40.00;;;;;;10381151;28;20261;-75
2024/03/18 05:30:09;;;;;;;7.33;6.73;;;12.00;40.40;;;;;;10384416;28;20241;-76
2024/03/18 05:35:12;;;;;;;7.00;6.30;;;12.00;40.30;;;;;;10389041;28;20246;-75
2024/03/18 05:40:15;;;;;;;7.07;6.47;;;11.90;40.50;;;;;;10391316;28;20260;-75
2024/03/18 05:45:17;;;;;;;7.10;6.10;;;12.00;40.80;;;;;;10376677;28;20256;-72
2024/03/18 05:50:20;;;;;;;7.37;6.67;;;12.00;40.60;;;;;;10369988;28;20321;-71
2024/03/18 05:55:24;;;;;;;10.37;8.23;;;12.00;40.70;;;;;;10372536;28;20315;-71
2024/03/18 06:00:28;;;;;;;9.90;8.73;;;12.00;41.00;;;;;;10373070;28;20245;-71
2024/03/18 06:05:30;;;;;;;12.83;9.23;;;12.00;40.90;;;;;;10336324;28;20300;-72
2024/03/18 06:10:34;;;;;;;11.80;9.23;;;12.10;40.90;;;;;;10339955;28;20317;-71
2024/03/18 06:15:36;;;;;;;8.23;7.43;;;12.00;41.00;;;;;;10325358;28;20257;-72
2024/03/18 06:20:42;;;;;;;6.57;5.80;;;12.00;41.00;;;;;;10337546;28;20269;-71
2024/03/18 06:25:57;;;;;;;7.20;5.80;;;12.10;41.80;;;;;;10328959;28;20256;-71
2024/03/18 06:31:00;;;;;;;6.60;6.10;;;12.10;41.80;;;;;;10339464;28;20720;-71
2024/03/18 06:36:08;;;;;;;6.73;5.80;;;12.20;41.70;;;;;;10338138;28;20250;-71
2024/03/18 06:41:13;;;;;;;7.00;6.30;;;12.20;41.40;;;;;;10334792;28;20254;-71
2024/03/18 06:46:15;;;;;;;7.77;6.80;;;12.20;41.90;;;;;;10338338;28;20262;-72
2024/03/18 06:51:17;;;;;;;6.00;5.50;;;12.20;41.40;;;;;;10342746;28;20289;-71
2024/03/18 06:56:21;;;;;;;6.33;5.73;;;12.20;41.30;;;;;;10349039;28;20250;-71
2024/03/18 07:01:24;;;;;;;7.60;6.90;;;12.20;41.90;;;;;;10336747;28;20660;-71
2024/03/18 07:06:26;;;;;;;6.97;5.73;;;12.30;41.60;;;;;;10344840;28;20242;-71
2024/03/18 07:11:30;;;;;;;7.27;6.57;;;12.30;41.90;;;;;;10342407;28;20254;-71
2024/03/18 07:16:32;;;;;;;8.13;7.33;;;12.40;42.00;;;;;;10344752;28;20242;-71
2024/03/18 07:21:35;;;;;;;7.23;6.60;;;12.40;42.00;;;;;;10344735;28;20292;-71
2024/03/18 07:26:39;;;;;;;8.00;7.03;;;12.40;42.00;;;;;;10345046;28;20258;-71
2024/03/18 07:31:41;;;;;;;6.93;6.30;;;12.50;42.10;;;;;;10341918;28;20733;-71
2024/03/18 07:36:43;;;;;;;6.63;6.03;;;12.50;42.10;;;;;;10347180;28;20296;-71
2024/03/18 07:41:47;;;;;;;6.47;5.93;;;12.50;42.10;;;;;;10346671;28;20700;-71
2024/03/18 07:46:49;;;;;;;7.03;6.43;;;12.50;42.30;;;;;;10344645;28;20685;-71
2024/03/18 07:51:51;;;;;;;6.87;6.27;;;12.60;42.20;;;;;;10341304;28;20312;-71
2024/03/18 07:56:55;;;;;;;6.20;5.60;;;12.70;42.30;;;;;;10342296;28;20260;-71
2024/03/18 08:01:58;;;;;;;6.93;6.33;;;12.80;42.40;;;;;;10341551;28;20670;-71
2024/03/18 08:07:01;;;;;;;6.83;6.23;;;12.90;42.50;;;;;;10342628;28;20251;-71
2024/03/18 08:12:06;;;;;;;6.90;6.20;;;13.00;42.60;;;;;;10352797;28;20324;-71
2024/03/18 08:17:09;;;;;;;5.90;5.40;;;13.10;42.70;;;;;;10357815;28;20258;-71
2024/03/18 08:22:13;;;;;;;7.77;6.07;;;13.20;42.70;;;;;;10335645;28;20964;-71
2024/03/18 08:27:17;;;;;;;6.47;5.27;;;13.20;42.70;;;;;;10346894;28;20254;-71
2024/03/18 08:32:19;;;;;;;6.07;5.53;;;13.30;42.80;;;;;;10337198;28;20576;-71
2024/03/18 08:37:22;;;;;;;5.83;5.33;;;13.50;43.00;;;;;;10345479;28;20265;-71
2024/03/18 08:42:25;;;;;;;5.97;5.33;;;13.50;43.00;;;;;;10343275;28;20265;-71
2024/03/18 08:47:28;;;;;;;6.47;5.00;;;13.60;43.10;;;;;;10338109;28;20251;-71
2024/03/18 08:52:30;;;;;;;5.63;4.73;;;13.70;43.20;;;;;;10341368;28;20246;-71
2024/03/18 08:57:34;;;;;;;4.73;4.43;;;13.80;43.20;;;;;;10335473;28;20324;-71
2024/03/18 09:02:36;;;;;;;5.90;5.23;;;14.00;43.40;;;;;;10337767;28;20766;-71
2024/03/18 09:07:38;;;;;;;6.17;5.37;;;14.10;43.30;;;;;;10371864;28;20285;-71
2024/03/18 09:12:42;;;;;;;6.33;5.13;;;14.20;43.30;;;;;;10368533;28;20311;-71
2024/03/18 09:17:45;;;;;;;5.53;5.03;;;14.30;43.50;;;;;;10370267;28;20314;-71
2024/03/18 09:22:48;;;;;;;6.23;5.67;;;14.40;43.10;;;;;;10361082;28;20325;-71
2024/03/18 09:27:51;;;;;;;5.57;5.07;;;14.50;43.00;;;;;;10369718;28;20249;-71
2024/03/18 09:32:53;;;;;;;5.30;4.90;;;14.60;43.00;;;;;;10366502;28;20412;-71
2024/03/18 09:37:56;;;;;;;5.20;4.80;;;14.70;42.70;;;;;;10371194;28;20328;-71
2024/03/18 09:42:59;;;;;;;5.83;4.83;;;14.80;42.70;;;;;;10367405;28;20313;-71
2024/03/18 09:48:02;;;;;;;6.10;5.50;;;14.90;42.80;;;;;;10367641;28;20249;-71
2024/03/18 09:53:05;;;;;;;5.90;5.40;;;15.00;42.90;;;;;;10329360;28;20316;-71
2024/03/18 09:58:15;;;;;;;6.43;5.77;;;15.00;42.50;;;;;;10316389;28;20222;-71
2024/03/18 10:03:18;;;;;;;5.87;5.30;;;15.10;42.60;;;;;;10322624;28;20362;-71
2024/03/18 10:08:21;;;;;;;6.00;5.50;;;15.10;42.20;;;;;;10327986;28;20308;-71
2024/03/18 10:13:25;;;;;;;6.50;5.90;;;15.20;42.30;;;;;;10320510;28;20337;-71
2024/03/18 10:18:27;;;;;;;6.13;5.53;;;15.20;42.20;;;;;;10327599;28;21233;-71
2024/03/18 10:23:30;;;;;;;6.57;5.97;;;15.30;42.30;;;;;;10327038;28;20364;-71
2024/03/18 10:28:34;;;;;;;7.03;6.30;;;15.40;42.20;;;;;;10337354;28;20978;-71
2024/03/18 10:33:37;;;;;;;7.43;6.70;;;15.50;42.20;;;;;;10346260;28;20321;-71
2024/03/18 10:38:44;;;;;;;6.87;6.37;;;15.60;42.10;;;;;;10334563;28;20321;-71
2024/03/18 10:43:52;;;;;;;8.13;6.50;;;15.70;41.90;;;;;;10334247;28;20313;-71
2024/03/18 10:48:57;;;;;;;7.27;6.30;;;15.70;41.80;;;;;;10343129;28;20739;-71
2024/03/18 10:54:00;;;;;;;6.63;6.10;;;15.80;41.50;;;;;;10338996;28;20361;-71
2024/03/18 10:59:04;;;;;;;7.10;6.47;;;15.80;41.60;;;;;;10338370;28;20305;-71
2024/03/18 11:04:18;;;;;;;7.23;6.53;;;15.90;41.40;;;;;;10336077;28;20322;-71
2024/03/18 11:09:22;;;;;;;6.67;5.97;;;15.90;41.40;;;;;;10338409;28;20318;-71
2024/03/18 11:14:27;;;;;;;6.83;6.23;;;16.00;41.40;;;;;;10332974;28;20309;-71
2024/03/18 11:19:32;;;;;;;6.70;6.10;;;16.10;41.20;;;;;;10330523;28;20314;-71
2024/03/18 11:24:35;;;;;;;6.67;6.07;;;16.20;41.00;;;;;;10344185;28;20277;-71
2024/03/18 11:29:40;;;;;;;6.33;5.83;;;16.20;41.00;;;;;;10336857;28;20365;-71
2024/03/18 11:34:43;;;;;;;6.57;5.97;;;16.20;40.70;;;;;;10362172;28;20238;-71
2024/03/18 11:39:46;;;;;;;6.17;5.57;;;16.20;40.80;;;;;;10338088;28;20381;-71
2024/03/18 11:44:50;;;;;;;6.63;6.03;;;16.30;41.00;;;;;;10330773;28;20313;-71
2024/03/18 11:50:03;;;;;;;7.10;6.43;;;16.30;41.00;;;;;;10336725;28;20305;-71
2024/03/18 11:55:07;;;;;;;7.30;6.60;;;16.30;40.70;;;;;;10340158;28;20301;-71
2024/03/18 12:00:12;;;;;;;6.10;5.60;;;16.40;40.60;;;;;;10331134;28;21282;-71
2024/03/18 12:05:15;;;;;;;6.53;5.90;;;16.40;40.50;;;;;;10352663;28;20305;-71
2024/03/18 12:10:21;;;;;;;6.10;5.50;;;16.40;40.50;;;;;;10348377;28;20815;-71
2024/03/18 12:15:25;;;;;;;8.90;6.70;;;16.50;40.50;;;;;;10329761;28;20365;-71
2024/03/18 12:20:28;;;;;;;8.03;7.23;;;16.50;39.90;;;;;;10339634;28;20250;-71
2024/03/18 12:30:58;;;;;;;9.37;8.40;;;16.40;40.00;;;;;;10342752;28;20289;-71
2024/03/18 12:36:03;;;;;;;9.50;8.70;;;16.40;39.50;;;;;;10375696;28;20238;-71
2024/03/18 12:41:06;;;;;;;9.83;8.83;;;16.30;40.00;;;;;;10376042;28;20241;-71
2024/03/18 12:46:11;;;;;;;9.27;8.37;;;16.20;40.20;;;;;;10378957;28;20245;-71
2024/03/18 12:51:16;;;;;;;7.83;6.20;;;16.20;40.20;;;;;;10397310;28;20276;-71
2024/03/18 12:56:19;;;;;;;7.80;7.10;;;16.20;40.00;;;;;;10372479;28;20308;-71
2024/03/18 13:01:23;;;;;;;9.03;7.87;;;16.10;40.20;;;;;;10380964;28;20260;-72
2024/03/18 13:06:25;;;;;;;5.70;4.40;;;16.10;40.30;;;;;;10375504;28;20245;-71
2024/03/18 13:11:28;;;;;;;4.03;3.43;;;16.10;40.20;;;;;;10386275;28;20950;-71
2024/03/18 13:16:32;;;;;;;7.30;3.83;;;16.20;40.20;;;;;;10378032;28;20309;-72
2024/03/18 13:21:34;;;;;;;3.77;2.90;;;16.10;40.00;;;;;;10375875;28;20312;-72
2024/03/18 13:26:37;;;;;;;4.87;2.50;;;16.20;40.20;;;;;;10379501;28;20789;-72
2024/03/18 13:31:41;;;;;;;4.53;3.30;;;16.20;40.10;;;;;;10375436;28;20244;-71
2024/03/18 13:36:43;;;;;;;3.93;3.23;;;16.20;39.50;;;;;;10377216;28;20303;-72
2024/03/18 13:41:45;;;;;;;4.23;3.50;;;16.20;39.90;;;;;;10371509;28;20270;-71
2024/03/18 13:46:49;;;;;;;5.93;4.10;;;16.20;40.00;;;;;;10377004;28;20250;-71
2024/03/18 13:51:55;;;;;;;4.30;3.90;;;16.20;39.60;;;;;;10375177;28;20261;-72
2024/03/18 13:57:00;;;;;;;5.77;4.80;;;16.10;39.90;;;;;;10373178;28;20729;-71
2024/03/18 14:02:06;;;;;;;6.27;5.00;;;16.20;39.80;;;;;;10378444;28;20264;-71
2024/03/18 14:07:08;;;;;;;6.50;5.50;;;16.10;39.60;;;;;;10383418;28;20241;-71
2024/03/18 14:12:15;;;;;;;5.57;4.93;;;16.10;40.00;;;;;;10379938;28;20254;-71
2024/03/18 14:17:19;;;;;;;6.23;4.60;;;16.10;40.00;;;;;;10384317;28;20257;-71
2024/03/18 14:22:21;;;;;;;8.40;7.20;;;16.10;40.00;;;;;;10346822;28;20809;-71
2024/03/18 14:27:24;;;;;;;7.23;5.53;;;16.10;40.20;;;;;;10343176;28;20305;-71
2024/03/18 14:32:27;;;;;;;5.63;4.80;;;16.20;39.90;;;;;;10342278;28;20254;-72
2024/03/18 14:37:30;;;;;;;8.23;5.47;;;16.20;39.70;;;;;;10354516;28;20269;-72
2024/03/18 14:42:32;;;;;;;6.07;5.47;;;16.20;39.70;;;;;;10385680;28;20257;-71
2024/03/18 14:47:35;;;;;;;5.67;5.17;;;16.20;39.50;;;;;;10385664;28;20234;-71
2024/03/18 14:52:38;;;;;;;6.13;5.20;;;16.20;39.50;;;;;;10379895;28;20257;-72
2024/03/18 14:57:40;;;;;;;7.33;6.63;;;16.20;39.50;;;;;;10341797;28;20242;-71
2024/03/18 15:02:44;;;;;;;7.33;6.73;;;16.20;39.50;;;;;;10339990;28;20317;-71
2024/03/18 15:07:46;;;;;;;7.83;6.97;;;16.20;39.30;;;;;;10325237;28;20314;-71
2024/03/18 15:12:49;;;;;;;7.33;6.13;;;16.20;39.50;;;;;;10331528;28;20297;-71
2024/03/18 15:17:54;;;;;;;7.70;6.40;;;16.10;39.60;;;;;;10331228;28;20309;-71
2024/03/18 15:22:59;;;;;;;6.83;6.10;;;16.10;39.30;;;;;;10331908;28;20346;-71
2024/03/18 15:28:01;;;;;;;6.70;6.10;;;16.10;39.80;;;;;;10329836;28;20362;-72
2024/03/18 15:33:06;;;;;;;7.40;6.60;;;16.20;39.70;;;;;;10335413;28;20317;-74
2024/03/18 15:38:09;;;;;;;9.00;7.90;;;16.20;39.30;;;;;;10339708;28;20401;-75
2024/03/18 15:43:11;;;;;;;9.20;8.30;;;16.20;39.60;;;;;;10338921;28;20253;-75
2024/03/18 15:48:15;;;;;;;9.97;8.80;;;16.30;39.80;;;;;;10339970;28;21024;-75
2024/03/18 15:53:17;;;;;;;9.30;8.40;;;16.30;39.80;;;;;;10347780;28;20356;-75
2024/03/18 15:58:19;;;;;;;9.27;8.47;;;16.30;39.80;;;;;;10344022;28;20246;-75
2024/03/18 16:03:23;;;;;;;9.13;7.33;;;16.40;39.80;;;;;;10352375;28;20409;-75
2024/03/18 16:08:25;;;;;;;9.20;8.30;;;16.30;39.60;;;;;;10348430;28;20257;-75
2024/03/18 16:13:28;;;;;;;9.63;8.63;;;16.40;39.70;;;;;;10355068;28;20250;-74
2024/03/18 16:18:31;;;;;;;9.10;8.13;;;16.30;39.80;;;;;;10341116;28;20250;-75
2024/03/18 16:23:34;;;;;;;10.37;7.53;;;16.30;39.70;;;;;;10391837;28;20249;-75
2024/03/18 16:28:36;;;;;;;9.50;7.80;;;16.30;39.80;;;;;;10383853;28;20267;-74
2024/03/18 16:33:40;;;;;;;8.47;7.73;;;16.30;40.10;;;;;;10369083;28;20289;-75
2024/03/18 16:38:42;;;;;;;8.83;7.77;;;16.30;40.10;;;;;;10348845;28;21009;-75
2024/03/18 16:43:45;;;;;;;8.37;7.57;;;16.40;40.30;;;;;;10380368;28;20249;-74
2024/03/18 16:48:48;;;;;;;8.97;7.73;;;16.40;40.10;;;;;;10366137;28;20242;-75
2024/03/18 16:53:50;;;;;;;7.93;7.23;;;16.40;40.00;;;;;;10384304;28;20249;-75
2024/03/18 16:58:53;;;;;;;7.57;6.87;;;16.40;39.80;;;;;;10380370;28;20295;-74
2024/03/18 17:03:59;;;;;;;7.70;7.00;;;16.50;39.80;;;;;;10339477;28;20760;-75
2024/03/18 17:09:02;;;;;;;8.23;6.80;;;16.40;40.60;;;;;;10341482;28;20269;-73
2024/03/18 17:14:04;;;;;;;7.63;6.83;;;16.30;40.00;;;;;;10339481;28;20258;-71
2024/03/18 17:19:08;;;;;;;7.63;6.83;;;16.30;40.00;;;;;;10336180;28;20712;-71
2024/03/18 17:24:10;;;;;;;8.33;7.20;;;16.30;40.10;;;;;;10340245;28;21000;-71
2024/03/18 17:29:12;;;;;;;7.23;6.53;;;16.30;40.10;;;;;;10336464;28;20309;-72
2024/03/18 17:34:16;;;;;;;7.30;6.60;;;16.30;40.10;;;;;;10341327;28;20362;-72
2024/03/18 17:39:18;;;;;;;6.67;6.07;;;16.30;40.20;;;;;;10339292;28;20262;-71
2024/03/18 17:44:20;;;;;;;9.20;6.83;;;16.20;40.10;;;;;;10335928;28;20254;-71
2024/03/18 17:49:24;;;;;;;7.23;6.63;;;16.20;40.10;;;;;;10336609;28;20960;-71
2024/03/18 17:54:27;;;;;;;6.63;6.03;;;16.10;40.20;;;;;;10340776;28;20320;-72
2024/03/18 17:59:29;;;;;;;6.60;6.00;;;16.10;40.20;;;;;;10337410;28;20304;-71
2024/03/18 18:04:33;;;;;;;6.40;5.77;;;16.00;40.30;;;;;;10354142;28;20648;-72
2024/03/18 18:09:36;;;;;;;6.03;5.47;;;16.00;40.50;;;;;;10347616;28;20255;-71
2024/03/18 18:14:38;;;;;;;6.93;6.27;;;15.90;40.50;;;;;;10344119;28;20759;-71
2024/03/18 18:19:44;;;;;;;6.93;5.80;;;16.00;40.80;;;;;;10337689;28;20246;-71
2024/03/18 18:24:46;;;;;;;6.40;5.80;;;16.00;40.90;;;;;;10339860;28;20261;-72
2024/03/18 18:29:48;;;;;;;7.03;6.23;;;16.00;40.80;;;;;;10340925;28;20848;-71
2024/03/18 18:34:52;;;;;;;6.60;6.00;;;16.00;40.60;;;;;;10334773;28;20250;-71
2024/03/18 18:39:54;;;;;;;7.67;6.47;;;16.00;40.80;;;;;;10335442;28;20247;-72
2024/03/18 18:44:57;;;;;;;6.60;5.97;;;16.00;40.50;;;;;;10322595;28;20309;-72
2024/03/18 18:50:02;;;;;;;6.40;5.47;;;15.90;40.20;;;;;;10329079;28;20261;-71
2024/03/18 18:55:06;;;;;;;6.03;5.03;;;15.90;40.40;;;;;;10338355;28;20318;-71
2024/03/18 19:00:15;;;;;;;5.27;4.77;;;15.90;40.40;;;;;;10335017;28;20329;-71
2024/03/18 19:05:19;;;;;;;5.50;5.00;;;15.90;40.40;;;;;;10338855;28;20840;-71
2024/03/18 19:10:22;;;;;;;4.93;4.50;;;15.90;40.00;;;;;;10336589;28;20270;-71
2024/03/18 19:15:26;;;;;;;4.67;4.10;;;15.90;39.80;;;;;;10335001;28;20701;-71
2024/03/18 19:20:29;;;;;;;4.60;4.20;;;15.90;39.70;;;;;;10332522;28;20251;-71
2024/03/18 19:25:32;;;;;;;5.67;5.13;;;15.90;39.40;;;;;;10335669;28;20732;-71
2024/03/18 19:30:34;;;;;;;5.20;4.70;;;15.90;39.50;;;;;;10339753;28;20709;-71
2024/03/18 19:35:43;;;;;;;6.13;5.00;;;15.90;39.50;;;;;;10340005;28;20318;-71
2024/03/18 19:40:45;;;;;;;7.20;6.17;;;15.90;39.60;;;;;;10358736;28;20254;-71
2024/03/18 19:45:48;;;;;;;4.87;4.43;;;15.90;39.60;;;;;;10373794;28;20265;-71
2024/03/18 19:50:53;;;;;;;5.13;4.63;;;15.90;39.60;;;;;;10390678;28;20249;-71
2024/03/18 19:55:56;;;;;;;5.33;4.83;;;15.90;39.40;;;;;;10390539;28;20318;-71
2024/03/18 20:00:58;;;;;;;7.10;4.90;;;15.90;39.70;;;;;;10343860;28;20743;-71
2024/03/18 20:06:02;;;;;;;5.97;4.90;;;15.90;39.50;;;;;;10339299;28;20242;-71
2024/03/18 20:11:05;;;;;;;3.47;3.17;;;15.80;39.00;;;;;;10344711;28;20295;-70
2024/03/18 20:16:10;;;;;;;3.77;2.67;;;15.70;38.20;;;;;;10357103;28;20752;-71
2024/03/18 20:21:13;;;;;;;2.87;2.50;;;15.60;38.00;;;;;;10344018;28;20304;-71
2024/03/18 20:26:15;;;;;;;3.53;3.20;;;15.50;38.00;;;;;;10353725;28;20249;-71
2024/03/18 20:31:18;;;;;;;4.10;3.30;;;15.40;37.90;;;;;;10354709;28;20323;-71
2024/03/18 20:36:22;;;;;;;4.53;4.07;;;15.40;38.10;;;;;;10341795;28;20242;-71
2024/03/18 20:41:24;;;;;;;4.63;4.17;;;15.30;37.60;;;;;;10356456;28;20304;-71
2024/03/18 20:46:26;;;;;;;7.53;4.70;;;15.30;37.90;;;;;;10345217;28;20235;-71
2024/03/18 20:51:30;;;;;;;6.73;5.33;;;15.20;38.40;;;;;;10339533;28;20662;-71
2024/03/18 20:56:34;;;;;;;5.87;5.07;;;15.10;38.40;;;;;;10336603;28;20926;-71
2024/03/18 21:01:37;;;;;;;4.60;4.07;;;15.00;38.70;;;;;;10355547;28;21460;-71
2024/03/18 21:06:40;;;;;;;3.97;3.63;;;15.00;39.10;;;;;;10361464;28;20242;-71
2024/03/18 21:11:42;;;;;;;4.50;4.10;;;15.00;39.40;;;;;;10342263;28;20258;-71
2024/03/18 21:16:45;;;;;;;6.63;5.87;;;15.00;39.40;;;;;;10363651;28;20389;-72
2024/03/18 21:21:48;;;;;;;6.03;5.53;;;15.00;39.10;;;;;;10339752;28;20246;-72
2024/03/18 21:26:50;;;;;;;8.00;6.10;;;14.90;39.30;;;;;;10346042;28;21050;-71
2024/03/18 21:31:53;;;;;;;6.60;6.00;;;14.80;39.40;;;;;;10343945;28;20790;-71
2024/03/18 21:36:56;;;;;;;7.73;6.33;;;14.70;39.70;;;;;;10337515;28;20292;-71
2024/03/18 21:41:59;;;;;;;6.07;5.47;;;14.60;40.00;;;;;;10341130;28;20264;-71
2024/03/18 21:47:01;;;;;;;6.40;5.80;;;14.60;40.00;;;;;;10339115;28;20245;-71
2024/03/18 21:52:05;;;;;;;9.13;7.07;;;14.60;40.00;;;;;;10353744;28;20323;-70
2024/03/18 21:57:07;;;;;;;10.00;8.30;;;14.60;40.00;;;;;;10357766;28;20280;-71
2024/03/18 22:02:09;;;;;;;12.53;11.13;;;14.50;39.80;;;;;;10364280;28;20640;-71
2024/03/18 22:07:13;;;;;;;13.10;11.90;;;14.40;39.70;;;;;;10346818;28;20238;-71
2024/03/18 22:12:15;;;;;;;10.20;9.20;;;14.30;39.60;;;;;;10339023;28;20254;-71
2024/03/18 22:17:17;;;;;;;8.83;8.07;;;14.20;39.40;;;;;;10333222;28;20259;-71
2024/03/18 22:22:21;;;;;;;9.37;8.33;;;14.10;39.50;;;;;;10343845;28;20243;-71
2024/03/18 22:27:23;;;;;;;10.43;8.90;;;14.10;40.10;;;;;;10344342;28;20270;-71
2024/03/18 22:32:26;;;;;;;10.27;9.27;;;14.10;40.00;;;;;;10343707;28;20326;-71
2024/03/18 22:37:32;;;;;;;10.30;9.30;;;14.10;40.10;;;;;;10346539;28;21026;-71
2024/03/18 22:42:34;;;;;;;12.53;11.33;;;14.10;40.30;;;;;;10351373;28;20253;-71
2024/03/18 22:47:36;;;;;;;14.23;12.83;;;14.10;40.10;;;;;;10346216;28;20297;-71
2024/03/18 22:52:40;;;;;;;12.60;11.37;;;14.10;40.10;;;;;;10334900;28;20309;-71
2024/03/18 22:57:42;;;;;;;14.63;12.87;;;14.00;40.20;;;;;;10354625;28;20242;-71
2024/03/18 23:02:45;;;;;;;23.33;18.77;;;14.00;40.20;;;;;;10346178;28;20254;-71
2024/03/18 23:07:48;;;;;;;15.50;12.90;;;14.00;40.40;;;;;;10381368;28;20288;-71
2024/03/18 23:12:51;;;;;;;12.73;11.53;;;14.00;40.50;;;;;;10380991;28;20248;-71
2024/03/18 23:17:53;;;;;;;13.93;12.53;;;13.90;40.40;;;;;;10381950;28;20245;-70
2024/03/18 23:22:57;;;;;;;14.20;12.80;;;13.90;40.60;;;;;;10382768;28;20307;-71
2024/03/18 23:27:59;;;;;;;13.70;12.50;;;13.90;40.90;;;;;;10384758;28;20279;-71
2024/03/18 23:33:01;;;;;;;14.47;13.17;;;13.80;40.60;;;;;;10392325;28;20293;-71
2024/03/18 23:38:05;;;;;;;14.03;12.63;;;13.80;40.70;;;;;;10381211;28;20970;-70
2024/03/18 23:43:08;;;;;;;14.83;13.43;;;13.80;40.90;;;;;;10380680;28;20256;-71
2024/03/18 23:48:10;;;;;;;15.27;13.87;;;13.80;40.80;;;;;;10387847;28;20307;-71
2024/03/18 23:53:15;;;;;;;15.83;14.33;;;13.80;40.90;;;;;;10380219;28;20364;-71
2024/03/18 23:58:19;;;;;;;15.57;14.07;;;13.70;41.20;;;;;;10382925;28;20245;-71
